createdAt,value
2022-11-13T00:00:37.092Z,3.97
2022-11-13T00:03:03.539Z,4.09
2022-11-13T00:05:29.904Z,4.07
2022-11-13T00:07:56.514Z,4.16
2022-11-13T00:10:23.489Z,4.21
2022-11-13T00:12:49.840Z,4.23
2022-11-13T00:15:16.935Z,4.21
2022-11-13T00:17:44.358Z,4.30
2022-11-13T00:20:11.648Z,4.34
2022-11-13T00:22:39.326Z,4.33
2022-11-13T00:25:06.010Z,4.36
2022-11-13T00:27:32.555Z,4.40
2022-11-13T00:30:01.184Z,4.40
2022-11-13T00:32:27.545Z,4.43
2022-11-13T00:34:54.704Z,4.51
2022-11-13T00:37:21.759Z,4.32
2022-11-13T00:39:49.135Z,4.36
2022-11-13T00:42:15.663Z,4.51
2022-11-13T00:44:42.058Z,4.45
2022-11-13T00:47:08.435Z,4.52
2022-11-13T00:49:37.017Z,4.50
2022-11-13T00:52:03.596Z,4.35
2022-11-13T00:54:30.547Z,4.26
2022-11-13T00:56:56.984Z,4.18
2022-11-13T00:59:23.392Z,4.34
2022-11-13T01:01:49.876Z,4.39
2022-11-13T01:04:16.299Z,4.52
2022-11-13T01:06:44.619Z,4.50
2022-11-13T01:09:11.047Z,4.39
2022-11-13T01:11:38.577Z,4.36
2022-11-13T01:14:04.999Z,4.28
2022-11-13T01:16:31.620Z,4.39
2022-11-13T01:18:58.166Z,4.24
2022-11-13T01:21:26.457Z,4.24
2022-11-13T01:23:54.535Z,4.16
2022-11-13T01:26:23.579Z,4.13
2022-11-13T01:28:50.296Z,4.14
2022-11-13T01:31:19.290Z,4.15
2022-11-13T01:33:46.174Z,4.16
2022-11-13T01:36:15.468Z,4.18
2022-11-13T01:38:41.882Z,4.11
2022-11-13T01:41:09.699Z,4.12
2022-11-13T01:43:37.725Z,4.10
2022-11-13T01:46:17.836Z,4.06
2022-11-13T01:48:51.738Z,4.01
2022-11-13T01:51:28.315Z,4.07
2022-11-13T01:53:55.793Z,4.05
2022-11-13T01:56:22.607Z,4.04
2022-11-13T01:58:54.682Z,3.95
2022-11-13T02:01:21.149Z,3.79
2022-11-13T02:03:48.014Z,3.80
2022-11-13T02:06:14.804Z,3.95
2022-11-13T02:08:41.521Z,3.93
2022-11-13T02:11:07.985Z,3.85
2022-11-13T02:13:35.344Z,3.81
2022-11-13T02:16:02.006Z,3.68
2022-11-13T02:18:30.232Z,3.82
2022-11-13T02:21:12.343Z,3.72
2022-11-13T02:23:57.348Z,3.70
2022-11-13T02:26:25.167Z,3.71
2022-11-13T02:28:51.907Z,3.53
2022-11-13T02:31:19.526Z,3.67
2022-11-13T02:33:45.998Z,3.51
2022-11-13T02:36:12.950Z,3.62
2022-11-13T02:38:41.223Z,3.46
2022-11-13T02:41:07.860Z,3.52
2022-11-13T02:43:34.525Z,3.41
2022-11-13T02:46:01.080Z,3.23
2022-11-13T02:48:27.942Z,3.14
2022-11-13T02:50:54.604Z,3.21
2022-11-13T02:53:21.244Z,3.19
2022-11-13T02:55:47.676Z,3.16
2022-11-13T02:58:14.173Z,2.93
2022-11-13T03:00:40.873Z,2.84
2022-11-13T03:03:07.451Z,2.90
2022-11-13T03:05:33.864Z,2.86
2022-11-13T03:08:01.484Z,2.70
2022-11-13T03:10:28.035Z,2.54
2022-11-13T03:12:54.626Z,2.54
2022-11-13T03:15:23.599Z,2.49
2022-11-13T03:17:50.652Z,2.39
2022-11-13T03:20:17.203Z,2.30
2022-11-13T03:22:43.777Z,2.26
2022-11-13T03:25:11.141Z,2.20
2022-11-13T03:27:37.746Z,2.23
2022-11-13T03:30:06.333Z,2.13
2022-11-13T03:32:32.771Z,2.16
2022-11-13T03:34:59.176Z,2.09
2022-11-13T03:37:25.605Z,2.03
2022-11-13T03:39:52.150Z,1.95
2022-11-13T03:42:18.579Z,1.86
2022-11-13T03:44:44.919Z,1.93
2022-11-13T03:47:11.304Z,1.92
2022-11-13T03:49:37.682Z,1.91
2022-11-13T03:52:04.292Z,1.80
2022-11-13T03:54:31.763Z,1.70
2022-11-13T03:56:58.157Z,1.58
2022-11-13T03:59:24.552Z,1.55
2022-11-13T04:01:50.950Z,1.58
2022-11-13T04:04:17.680Z,1.62
2022-11-13T04:06:44.081Z,1.54
2022-11-13T04:09:11.103Z,1.53
2022-11-13T04:11:37.478Z,1.55
2022-11-13T04:14:03.842Z,1.46
2022-11-13T04:16:31.267Z,1.49
2022-11-13T04:18:57.700Z,1.45
2022-11-13T04:21:24.081Z,1.42
2022-11-13T04:23:50.416Z,1.42
2022-11-13T04:26:16.774Z,1.47
2022-11-13T04:28:43.088Z,1.63
2022-11-13T04:31:09.566Z,1.59
2022-11-13T04:33:35.910Z,1.53
2022-11-13T04:36:02.348Z,1.48
2022-11-13T04:38:30.164Z,1.51
2022-11-13T04:41:15.495Z,1.53
2022-11-13T04:43:41.885Z,1.42
2022-11-13T04:46:08.334Z,1.31
2022-11-13T04:48:34.686Z,1.31
2022-11-13T04:51:01.397Z,1.41
2022-11-13T04:53:27.850Z,1.32
2022-11-13T04:55:54.239Z,1.41
2022-11-13T04:58:23.926Z,1.47
2022-11-13T05:00:51.368Z,1.50
2022-11-13T05:03:17.836Z,1.61
2022-11-13T05:05:44.184Z,1.53
2022-11-13T05:08:10.709Z,1.42
2022-11-13T05:10:37.159Z,1.35
2022-11-13T05:13:03.569Z,1.31
2022-11-13T05:15:29.991Z,1.26
2022-11-13T05:17:56.423Z,1.51
2022-11-13T05:20:22.907Z,1.56
2022-11-13T05:22:49.280Z,1.60
2022-11-13T05:25:15.675Z,1.52
2022-11-13T05:27:42.349Z,1.40
2022-11-13T05:30:09.187Z,1.41
2022-11-13T05:32:35.558Z,1.44
2022-11-13T05:35:01.922Z,1.40
2022-11-13T05:37:29.211Z,1.34
2022-11-13T05:39:55.599Z,1.22
2022-11-13T05:42:21.979Z,1.16
2022-11-13T05:44:48.407Z,1.12
2022-11-13T05:47:14.915Z,1.05
2022-11-13T05:49:41.257Z,1.03
2022-11-13T05:52:07.628Z,1.06
2022-11-13T05:54:33.967Z,1.02
2022-11-13T05:57:00.591Z,0.98
2022-11-13T05:59:26.915Z,0.95
2022-11-13T06:01:53.352Z,0.94
2022-11-13T06:04:19.767Z,0.91
2022-11-13T06:06:46.265Z,0.86
2022-11-13T06:09:14.567Z,0.86
2022-11-13T06:11:41.046Z,0.85
2022-11-13T06:14:20.736Z,0.80
2022-11-13T06:16:47.091Z,0.77
2022-11-13T06:19:13.484Z,0.87
2022-11-13T06:21:40.715Z,0.78
2022-11-13T06:24:08.345Z,0.73
2022-11-13T06:26:35.801Z,0.73
2022-11-13T06:29:04.064Z,0.75
2022-11-13T06:31:33.356Z,0.82
2022-11-13T06:34:00.238Z,0.88
2022-11-13T06:36:29.256Z,0.91
2022-11-13T06:38:55.830Z,0.89
2022-11-13T06:41:25.845Z,0.94
2022-11-13T06:43:52.586Z,1.06
2022-11-13T06:46:21.118Z,1.08
2022-11-13T06:48:48.280Z,1.18
2022-11-13T06:51:19.434Z,1.40
2022-11-13T06:53:45.900Z,1.46
2022-11-13T06:56:12.338Z,1.64
2022-11-13T06:58:39.226Z,1.64
2022-11-13T07:01:10.860Z,1.70
2022-11-13T07:03:37.746Z,1.83
2022-11-13T07:06:06.323Z,1.89
2022-11-13T07:08:33.107Z,2.01
2022-11-13T07:11:00.128Z,2.16
2022-11-13T07:13:27.720Z,2.33
2022-11-13T07:15:54.449Z,2.41
2022-11-13T07:18:24.094Z,2.42
2022-11-13T07:20:50.687Z,2.50
2022-11-13T07:23:17.009Z,2.63
2022-11-13T07:25:43.588Z,3.05
2022-11-13T07:28:09.995Z,4.44
2022-11-13T07:30:36.373Z,6.04
2022-11-13T07:33:03.739Z,7.33
2022-11-13T07:35:30.397Z,8.37
2022-11-13T07:37:58.365Z,9.51
2022-11-13T07:40:24.885Z,9.97
2022-11-13T07:42:59.014Z,11.02
2022-11-13T07:45:26.244Z,12.11
2022-11-13T07:47:52.578Z,12.96
2022-11-13T07:50:19.012Z,13.69
2022-11-13T07:52:45.413Z,14.44
2022-11-13T07:55:11.829Z,14.25
2022-11-13T07:57:38.281Z,14.88
2022-11-13T08:00:05.363Z,15.59
2022-11-13T08:02:31.873Z,15.83
2022-11-13T08:04:58.773Z,12.87
2022-11-13T08:07:25.273Z,12.42
2022-11-13T08:09:51.847Z,12.90
2022-11-13T08:12:18.269Z,11.93
2022-11-13T08:14:44.751Z,13.36
2022-11-13T08:17:11.351Z,13.12
2022-11-13T08:19:37.835Z,13.09
2022-11-13T08:22:04.348Z,12.14
2022-11-13T08:24:30.776Z,13.49
2022-11-13T08:26:58.011Z,14.23
2022-11-13T08:29:24.553Z,14.90
2022-11-13T08:31:51.190Z,15.93
2022-11-13T08:34:17.697Z,16.46
2022-11-13T08:36:44.109Z,16.35
2022-11-13T08:39:10.666Z,16.05
2022-11-13T08:41:37.088Z,14.61
2022-11-13T08:44:03.722Z,15.81
2022-11-13T08:46:30.214Z,14.22
2022-11-13T08:48:56.711Z,15.39
2022-11-13T08:51:23.311Z,16.68
2022-11-13T08:53:49.776Z,14.57
2022-11-13T08:56:16.295Z,16.15
2022-11-13T08:58:42.844Z,14.12
2022-11-13T09:01:09.565Z,14.19
2022-11-13T09:03:36.957Z,14.56
2022-11-13T09:06:07.579Z,16.23
2022-11-13T09:08:34.124Z,17.68
2022-11-13T09:11:05.124Z,18.08
2022-11-13T09:13:33.159Z,18.84
2022-11-13T09:16:00.712Z,20.06
2022-11-13T09:18:27.817Z,16.89
2022-11-13T09:20:54.912Z,17.64
2022-11-13T09:23:21.863Z,17.54
2022-11-13T09:25:48.408Z,18.64
2022-11-13T09:28:14.910Z,15.93
2022-11-13T09:30:41.585Z,18.44
2022-11-13T09:33:08.081Z,18.53
2022-11-13T09:35:34.665Z,19.43
2022-11-13T09:38:12.862Z,19.91
2022-11-13T09:40:59.094Z,19.38
2022-11-13T09:43:35.632Z,20.89
2022-11-13T09:46:10.812Z,21.42
2022-11-13T09:48:39.823Z,20.68
2022-11-13T09:51:13.131Z,20.26
2022-11-13T09:53:40.158Z,19.95
2022-11-13T09:56:13.674Z,16.48
2022-11-13T09:58:49.218Z,17.60
2022-11-13T10:01:24.309Z,17.99
2022-11-13T10:04:03.450Z,18.80
2022-11-13T10:06:50.264Z,19.56
2022-11-13T10:09:59.343Z,19.60
2022-11-13T10:12:28.113Z,19.23
2022-11-13T10:14:56.125Z,18.84
2022-11-13T10:17:31.376Z,18.77
2022-11-13T10:20:22.621Z,19.19
2022-11-13T10:22:52.288Z,19.15
2022-11-13T10:25:22.071Z,18.34
2022-11-13T10:28:15.919Z,18.06
2022-11-13T10:30:49.802Z,18.61
2022-11-13T10:33:21.748Z,17.88
2022-11-13T10:36:35.319Z,18.70
2022-11-13T10:39:08.232Z,19.52
2022-11-13T10:41:47.141Z,19.45
2022-11-13T10:44:26.190Z,20.17
2022-11-13T10:47:12.997Z,19.58
2022-11-13T10:49:39.557Z,18.67
2022-11-13T10:52:26.039Z,19.09
2022-11-13T10:55:12.760Z,19.64
2022-11-13T10:57:39.283Z,20.22
2022-11-13T11:00:26.799Z,20.59
2022-11-13T11:02:53.347Z,19.41
2022-11-13T11:05:22.055Z,19.74
2022-11-13T11:07:48.665Z,19.29
2022-11-13T11:10:21.241Z,19.24
2022-11-13T11:12:55.756Z,19.09
2022-11-13T11:15:24.228Z,18.67
2022-11-13T11:18:02.948Z,17.21
2022-11-13T11:20:39.108Z,17.31
2022-11-13T11:23:24.432Z,17.24
2022-11-13T11:25:56.129Z,16.35
2022-11-13T11:28:29.855Z,16.35
2022-11-13T11:31:05.961Z,17.10
2022-11-13T11:33:39.793Z,16.65
2022-11-13T11:36:23.024Z,16.79
2022-11-13T11:38:59.658Z,16.28
2022-11-13T11:41:33.619Z,16.23
2022-11-13T11:44:33.588Z,15.68
2022-11-13T11:47:00.301Z,15.06
2022-11-13T11:49:27.567Z,14.98
2022-11-13T11:52:06.786Z,14.49
2022-11-13T11:54:41.996Z,13.91
2022-11-13T11:57:35.944Z,13.72
2022-11-13T12:00:06.432Z,13.16
2022-11-13T12:03:02.361Z,12.83
2022-11-13T12:06:10.500Z,13.03
2022-11-13T12:08:47.028Z,12.70
2022-11-13T12:11:30.738Z,13.14
2022-11-13T12:14:32.287Z,13.25
2022-11-13T12:17:17.648Z,13.29
2022-11-13T12:20:18.253Z,13.47
2022-11-13T12:22:57.004Z,13.37
2022-11-13T12:25:37.670Z,13.17
2022-11-13T12:28:25.677Z,13.82
2022-11-13T12:31:01.500Z,13.92
2022-11-13T12:33:43.641Z,13.31
2022-11-13T12:36:11.958Z,13.54
2022-11-13T12:38:48.383Z,13.89
2022-11-13T12:41:16.668Z,13.72
2022-11-13T12:44:01.925Z,12.78
2022-11-13T12:46:39.621Z,12.40
2022-11-13T12:49:32.615Z,12.82
2022-11-13T12:52:02.096Z,12.37
2022-11-13T12:54:29.643Z,12.40
2022-11-13T12:57:14.483Z,12.52
2022-11-13T13:00:07.187Z,12.00
2022-11-13T13:02:55.457Z,12.74
2022-11-13T13:05:53.454Z,12.23
2022-11-13T13:08:26.225Z,12.42
2022-11-13T13:11:03.412Z,12.33
2022-11-13T13:13:57.273Z,12.29
2022-11-13T13:16:26.870Z,12.48
2022-11-13T13:18:53.690Z,13.04
2022-11-13T13:21:21.356Z,13.38
2022-11-13T13:23:50.965Z,13.93
2022-11-13T13:26:25.699Z,13.78
2022-11-13T13:28:56.952Z,13.69
2022-11-13T13:31:37.409Z,13.04
2022-11-13T13:34:04.155Z,12.69
2022-11-13T13:36:49.384Z,12.25
2022-11-13T13:39:30.608Z,12.21
2022-11-13T13:42:11.389Z,12.15
2022-11-13T13:44:52.905Z,11.81
2022-11-13T13:47:35.184Z,11.96
2022-11-13T13:50:06.033Z,11.87
2022-11-13T13:52:33.771Z,11.59
2022-11-13T13:55:03.074Z,11.57
2022-11-13T13:57:30.471Z,11.24
2022-11-13T13:59:57.258Z,11.87
2022-11-13T14:02:24.371Z,11.72
2022-11-13T14:04:53.133Z,11.77
2022-11-13T14:07:30.380Z,11.56
2022-11-13T14:10:18.083Z,11.56
2022-11-13T14:12:46.179Z,11.69
2022-11-13T14:15:36.005Z,10.91
2022-11-13T14:20:52.539Z,10.64
2022-11-13T14:23:31.543Z,10.59
2022-11-13T14:25:58.274Z,10.42
2022-11-13T14:28:27.549Z,10.47
2022-11-13T14:31:05.671Z,10.47
2022-11-13T14:33:35.563Z,10.44
2022-11-13T14:36:02.679Z,10.17
2022-11-13T14:38:33.511Z,10.27
2022-11-13T14:41:00.464Z,10.01
2022-11-13T14:43:30.217Z,10.17
2022-11-13T14:45:59.929Z,9.68
2022-11-13T14:48:33.739Z,9.71
2022-11-13T14:51:07.845Z,9.50
2022-11-13T14:53:39.693Z,9.52
2022-11-13T14:56:09.252Z,9.40
2022-11-13T14:58:47.188Z,9.37
2022-11-13T15:01:16.754Z,9.24
2022-11-13T15:03:46.845Z,9.13
2022-11-13T15:06:24.955Z,9.08
2022-11-13T15:08:54.717Z,9.00
2022-11-13T15:11:23.150Z,8.90
2022-11-13T15:13:50.150Z,8.86
2022-11-13T15:16:27.684Z,8.71
2022-11-13T15:19:01.095Z,8.67
2022-11-13T15:21:28.549Z,8.55
2022-11-13T15:23:55.064Z,8.49
2022-11-13T15:26:21.501Z,8.42
2022-11-13T15:28:48.065Z,8.39
2022-11-13T15:31:30.783Z,8.40
2022-11-13T15:33:57.274Z,8.34
2022-11-13T15:36:24.055Z,8.29
2022-11-13T15:38:51.029Z,8.29
2022-11-13T15:41:23.027Z,8.26
2022-11-13T15:43:54.447Z,8.19
2022-11-13T15:46:22.673Z,8.15
2022-11-13T15:48:49.850Z,8.12
2022-11-13T15:51:20.807Z,8.08
2022-11-13T15:53:50.254Z,8.02
2022-11-13T15:56:17.223Z,8.04
2022-11-13T15:58:43.757Z,7.94
2022-11-13T16:01:13.325Z,7.97
2022-11-13T16:03:40.506Z,7.97
2022-11-13T16:06:16.035Z,7.91
2022-11-13T16:08:42.915Z,7.91
2022-11-13T16:11:20.262Z,7.91
2022-11-13T16:13:47.289Z,7.93
2022-11-13T16:16:24.822Z,7.93
2022-11-13T16:18:55.857Z,7.87
2022-11-13T16:21:25.374Z,7.93
2022-11-13T16:23:51.855Z,7.89
2022-11-13T16:26:21.308Z,7.96
2022-11-13T16:29:12.192Z,7.91
2022-11-13T16:31:34.675Z,8.00
2022-11-13T16:34:01.691Z,7.88
2022-11-13T16:36:28.111Z,7.97
2022-11-13T16:38:55.709Z,7.91
2022-11-13T16:41:23.702Z,7.96
2022-11-13T16:43:50.230Z,7.97
2022-11-13T16:46:26.280Z,8.01
2022-11-13T16:48:53.244Z,8.00
2022-11-13T16:51:19.767Z,7.94
2022-11-13T16:53:46.260Z,7.92
2022-11-13T16:56:18.425Z,7.96
2022-11-13T16:58:44.870Z,7.95
2022-11-13T17:01:16.270Z,7.90
2022-11-13T17:03:43.451Z,7.99
2022-11-13T17:06:30.546Z,7.97
2022-11-13T17:08:59.298Z,8.04
2022-11-13T17:11:28.192Z,8.12
2022-11-13T17:13:56.877Z,8.10
2022-11-13T17:16:24.660Z,8.03
2022-11-13T17:18:53.286Z,8.10
2022-11-13T17:21:21.454Z,8.16
2022-11-13T17:23:48.103Z,8.10
2022-11-13T17:26:14.723Z,8.10
2022-11-13T17:28:41.257Z,8.18
2022-11-13T17:31:10.155Z,8.15
2022-11-13T17:33:37.490Z,8.23
2022-11-13T17:36:04.697Z,8.29
2022-11-13T17:38:31.266Z,8.29
2022-11-13T17:41:08.184Z,8.20
2022-11-13T17:43:36.658Z,8.23
2022-11-13T17:46:08.734Z,8.23
2022-11-13T17:48:36.355Z,8.25
2022-11-13T17:51:06.664Z,8.23
2022-11-13T17:53:33.845Z,8.22
2022-11-13T17:56:04.723Z,8.25
2022-11-13T17:58:36.846Z,8.24
2022-11-13T18:01:05.479Z,8.20
2022-11-13T18:03:32.136Z,8.13
2022-11-13T18:05:58.669Z,7.99
2022-11-13T18:08:25.146Z,8.05
2022-11-13T18:10:51.822Z,8.09
2022-11-13T18:13:18.301Z,7.98
2022-11-13T18:15:44.926Z,7.98
2022-11-13T18:18:11.583Z,7.86
2022-11-13T18:20:39.927Z,8.03
2022-11-13T18:23:06.526Z,7.97
2022-11-13T18:25:39.641Z,7.96
2022-11-13T18:28:06.357Z,7.90
2022-11-13T18:30:32.893Z,7.94
2022-11-13T18:32:59.439Z,7.89
2022-11-13T18:35:26.053Z,7.94
2022-11-13T18:37:53.087Z,7.98
2022-11-13T18:40:19.643Z,8.09
2022-11-13T18:42:46.254Z,8.15
2022-11-13T18:45:16.277Z,8.23
2022-11-13T18:47:42.867Z,8.25
2022-11-13T18:50:09.849Z,8.24
2022-11-13T18:52:36.400Z,8.30
2022-11-13T18:55:02.954Z,8.38
2022-11-13T18:57:29.577Z,8.47
2022-11-13T18:59:56.121Z,8.50
2022-11-13T19:02:22.729Z,8.56
2022-11-13T19:04:49.316Z,8.60
2022-11-13T19:07:16.055Z,8.59
2022-11-13T19:09:45.938Z,8.62
2022-11-13T19:12:12.517Z,8.58
2022-11-13T19:14:39.043Z,8.69
2022-11-13T19:17:05.570Z,8.62
2022-11-13T19:19:32.072Z,8.64
2022-11-13T19:21:58.579Z,8.66
2022-11-13T19:24:25.078Z,8.72
2022-11-13T19:26:51.691Z,8.84
2022-11-13T19:29:19.487Z,8.86
2022-11-13T19:31:47.873Z,8.96
2022-11-13T19:34:15.132Z,8.91
2022-11-13T19:36:41.838Z,9.00
2022-11-13T19:39:09.736Z,9.00
2022-11-13T19:41:36.298Z,9.06
2022-11-13T19:44:02.832Z,9.03
2022-11-13T19:46:32.018Z,9.01
2022-11-13T19:48:58.629Z,9.02
2022-11-13T19:51:26.334Z,9.08
2022-11-13T19:53:54.218Z,9.09
2022-11-13T19:56:22.210Z,9.03
2022-11-13T19:58:50.025Z,9.01
2022-11-13T20:01:25.040Z,9.13
2022-11-13T20:03:59.993Z,9.09
2022-11-13T20:06:27.820Z,9.10
2022-11-13T20:08:54.429Z,9.10
2022-11-13T20:11:21.020Z,9.15
2022-11-13T20:13:47.554Z,9.16
2022-11-13T20:16:15.593Z,9.05
2022-11-13T20:18:42.981Z,8.96
2022-11-13T20:21:10.038Z,8.84
2022-11-13T20:23:37.117Z,8.92
2022-11-13T20:26:07.116Z,8.94
2022-11-13T20:28:34.342Z,8.91
2022-11-13T20:31:03.871Z,8.85
2022-11-13T20:33:32.719Z,8.79
2022-11-13T20:35:59.271Z,8.79
2022-11-13T20:38:25.878Z,8.76
2022-11-13T20:40:52.547Z,8.83
2022-11-13T20:43:19.039Z,8.87
2022-11-13T20:45:45.691Z,8.85
2022-11-13T20:48:12.225Z,8.79
2022-11-13T20:50:38.882Z,8.90
2022-11-13T20:53:06.104Z,8.87
2022-11-13T20:55:32.683Z,8.82
2022-11-13T20:57:59.206Z,8.84
2022-11-13T21:00:26.002Z,8.88
2022-11-13T21:02:52.505Z,8.90
2022-11-13T21:05:19.070Z,8.89
2022-11-13T21:07:45.547Z,8.93
2022-11-13T21:10:12.007Z,8.87
2022-11-13T21:12:38.474Z,8.84
2022-11-13T21:15:05.551Z,8.81
2022-11-13T21:17:31.940Z,8.84
2022-11-13T21:19:58.481Z,8.78
2022-11-13T21:22:25.297Z,8.72
2022-11-13T21:24:51.772Z,8.77
2022-11-13T21:27:18.201Z,8.67
2022-11-13T21:29:44.740Z,8.68
2022-11-13T21:32:11.475Z,8.63
2022-11-13T21:34:38.227Z,8.54
2022-11-13T21:37:04.659Z,8.57
2022-11-13T21:39:31.123Z,8.52
2022-11-13T21:41:57.812Z,8.55
2022-11-13T21:44:24.281Z,8.48
2022-11-13T21:46:50.832Z,8.51
2022-11-13T21:49:17.304Z,8.55
2022-11-13T21:51:43.809Z,8.50
2022-11-13T21:54:10.761Z,8.49
2022-11-13T21:56:38.119Z,8.53
2022-11-13T21:59:05.910Z,8.54
2022-11-13T22:01:38.137Z,8.49
2022-11-13T22:04:05.835Z,8.47
2022-11-13T22:06:36.203Z,8.51
2022-11-13T22:09:23.198Z,8.62
2022-11-13T22:11:50.087Z,8.53
2022-11-13T22:14:17.222Z,8.50
2022-11-13T22:16:45.441Z,8.52
2022-11-13T22:19:18.707Z,8.56
2022-11-13T22:21:47.577Z,8.55
2022-11-13T22:24:14.566Z,8.54
2022-11-13T22:26:45.415Z,8.53
2022-11-13T22:29:11.973Z,8.54
2022-11-13T22:31:38.497Z,8.53
2022-11-13T22:34:05.436Z,8.57
2022-11-13T22:36:34.289Z,8.57
2022-11-13T22:39:01.068Z,8.63
2022-11-13T22:41:30.948Z,8.68
2022-11-13T22:43:59.724Z,8.73
2022-11-13T22:46:28.403Z,8.72
2022-11-13T22:48:55.893Z,8.71
2022-11-13T22:51:30.854Z,8.75
2022-11-13T22:53:59.454Z,8.81
2022-11-13T22:56:28.303Z,8.78
2022-11-13T22:58:56.351Z,8.81
2022-11-13T23:01:25.564Z,8.76
2022-11-13T23:03:53.510Z,8.77
2022-11-13T23:06:22.385Z,8.74
2022-11-13T23:08:49.477Z,8.79
2022-11-13T23:11:28.766Z,8.78
2022-11-13T23:13:57.541Z,8.82
2022-11-13T23:16:25.074Z,8.80
2022-11-13T23:18:53.218Z,8.79
2022-11-13T23:21:19.925Z,8.71
2022-11-13T23:23:46.445Z,8.70
2022-11-13T23:26:14.146Z,8.73
2022-11-13T23:28:40.894Z,8.72
2022-11-13T23:31:07.939Z,8.73
2022-11-13T23:33:34.623Z,8.71
2022-11-13T23:36:01.365Z,8.77
2022-11-13T23:38:28.461Z,8.73
2022-11-13T23:40:56.459Z,8.73
2022-11-13T23:43:36.449Z,8.68
2022-11-13T23:46:10.248Z,8.70
2022-11-13T23:48:36.685Z,8.64
2022-11-13T23:51:03.439Z,8.69
2022-11-13T23:53:29.889Z,8.59
2022-11-13T23:55:56.468Z,8.61
2022-11-13T23:58:22.946Z,8.62
